Aérodrome :
LOGIN :

S'inscrire | Disclaimer

   EN    FR    IT 

 










Légende :    VFR   VFR Marginal   IFR   IFR Intensif   IFR Très Intensif
Visi : 
Plafond : 
>= 8 km
>= 3000ft
5 à 8 km
1000 à 3000 ft
1500m à 5 km
500 à 1000 ft
800 à 1500m
200 à 500 ft
< 800m
< 200 ft
Symboles :   Orages  Brouillard  Fortes neiges  Fortes précipitations  Vent > 20 kt
SIGMETs :   Divers  Orages  Givrage  Turbulence  Onde Orograph.  Cendres Volcan.







- Altitude de l'aérodrome : 19 ft
- Code IATA : BEB
- Voir les cartes d'approche


EGPL - Benbecula

DERNIER METAR :
  • 191620Z 27009KT 9999 FEW024 11/06 Q1021

METARs EXPIRÉS :
  • 191550Z 27010KT 9999 FEW025 11/06 Q1020
  • 191520Z 27011KT 9999 FEW024 11/07 Q1021
  • 191450Z 28013KT 9999 FEW024 11/07 Q1021
  • 191420Z 28014KT 9999 SCT021 12/07 Q1020

Prévision TAF périmée.
ATIS : +44 1870 604 818
Pas de NOTAMs connus pour ce terrain.
1 SIGMET publié pour la FIR Scottish (EGPX) :
 
Turbulence forte
EGPX SIGMET 06 VALID 191600/191900 EGRR
EGPX SCOTTISH FIR SEV TURB FCST WI N5500 W00501 - N5719 W00549 - N5951 W00926 - N6018 W00750 - N5818 W00411 - N5500 W00216 - N5500 W00501 FL250/400 MOV ESE 30KT WKN=



MET'MAP, la Météo Aéronautique d'un coup d'oeil ! - Copyright ORBIFLY Décembre 2007 - Disclaimer

ORBIFLY MET'MAP TEAM :

Programmation & Développement : Alexandra Zaïnal
Conception & Développement : Baudouin d'Aumeries
Co-Programmation & Développement : Marc-Olivier Méhu
Soutien technique & logistique : Manuel Goepfert

Contact : metmap@orbifly.com




SOURCES & CREDITS :

   NOAA